createdAt,value
2023-03-17T00:00:20.055Z,4.80
2023-03-17T00:02:49.597Z,4.50
2023-03-17T00:05:19.542Z,4.57
2023-03-17T00:07:47.570Z,4.55
2023-03-17T00:10:17.881Z,5.10
2023-03-17T00:12:45.952Z,6.10
2023-03-17T00:15:15.047Z,4.43
2023-03-17T00:17:42.539Z,5.13
2023-03-17T00:20:21.796Z,5.55
2023-03-17T00:22:49.223Z,4.95
2023-03-17T00:25:23.337Z,6.30
2023-03-17T00:27:51.347Z,5.20
2023-03-17T00:30:18.734Z,5.25
2023-03-17T00:32:46.724Z,6.57
2023-03-17T00:35:19.148Z,7.35
2023-03-17T00:37:46.984Z,7.50
2023-03-17T00:40:19.178Z,7.22
2023-03-17T00:42:46.393Z,7.25
2023-03-17T00:45:14.044Z,7.78
2023-03-17T00:47:41.066Z,8.00
2023-03-17T00:50:19.312Z,7.93
2023-03-17T00:52:46.416Z,7.85
2023-03-17T00:55:14.442Z,8.88
2023-03-17T00:57:42.498Z,8.48
2023-03-17T01:00:28.212Z,8.82
2023-03-17T01:02:57.331Z,9.35
2023-03-17T01:05:25.842Z,9.20
2023-03-17T01:07:59.016Z,9.18
2023-03-17T01:10:28.563Z,8.93
2023-03-17T01:12:58.168Z,9.23
2023-03-17T01:15:29.042Z,8.57
2023-03-17T01:17:57.315Z,7.97
2023-03-17T01:20:42.948Z,7.38
2023-03-17T01:23:12.337Z,6.90
2023-03-17T01:25:41.597Z,7.38
2023-03-17T01:28:14.327Z,6.32
2023-03-17T01:30:41.727Z,5.88
2023-03-17T01:33:10.884Z,7.03
2023-03-17T01:35:38.650Z,6.63
2023-03-17T01:38:06.180Z,6.75
2023-03-17T01:40:36.280Z,6.10
2023-03-17T01:43:09.339Z,6.10
2023-03-17T01:46:16.523Z,7.30
2023-03-17T01:48:58.737Z,6.68
2023-03-17T01:51:33.399Z,5.72
2023-03-17T01:54:03.699Z,5.25
2023-03-17T01:56:31.569Z,5.63
2023-03-17T01:59:01.741Z,5.43
2023-03-17T02:01:33.858Z,4.68
2023-03-17T02:04:01.307Z,5.50
2023-03-17T02:06:28.480Z,5.15
2023-03-17T02:08:55.692Z,5.28
2023-03-17T02:11:22.765Z,5.78
2023-03-17T02:13:50.067Z,5.50
2023-03-17T02:16:17.818Z,5.45
2023-03-17T02:18:45.127Z,5.43
2023-03-17T02:21:31.435Z,5.72
2023-03-17T02:24:01.728Z,5.50
2023-03-17T02:26:32.072Z,6.13
2023-03-17T02:28:59.296Z,7.18
2023-03-17T02:31:27.602Z,6.05
2023-03-17T02:33:54.819Z,6.55
2023-03-17T02:36:22.278Z,5.97
2023-03-17T02:38:50.093Z,7.47
2023-03-17T02:41:17.587Z,7.32
2023-03-17T02:43:44.556Z,6.45
2023-03-17T02:46:11.493Z,9.13
2023-03-17T02:48:39.686Z,7.30
2023-03-17T02:51:06.838Z,7.63
2023-03-17T02:53:33.792Z,7.72
2023-03-17T02:56:00.753Z,7.75
2023-03-17T02:58:27.905Z,7.43
2023-03-17T03:00:54.822Z,7.20
2023-03-17T03:03:21.885Z,7.35
2023-03-17T03:05:48.835Z,7.63
2023-03-17T03:08:16.552Z,7.97
2023-03-17T03:10:43.658Z,7.18
2023-03-17T03:13:11.649Z,8.05
2023-03-17T03:15:42.030Z,8.25
2023-03-17T03:18:09.052Z,7.30
2023-03-17T03:20:36.642Z,7.53
2023-03-17T03:23:04.064Z,8.23
2023-03-17T03:25:31.486Z,8.25
2023-03-17T03:27:58.410Z,7.38
2023-03-17T03:30:25.294Z,7.82
2023-03-17T03:32:52.274Z,7.32
2023-03-17T03:35:19.249Z,7.63
2023-03-17T03:37:46.257Z,8.18
2023-03-17T03:40:13.527Z,7.70
2023-03-17T03:42:40.992Z,7.82
2023-03-17T03:45:08.524Z,7.85
2023-03-17T03:47:35.862Z,7.20
2023-03-17T03:50:02.916Z,8.45
2023-03-17T03:52:29.802Z,8.13
2023-03-17T03:54:56.741Z,6.38
2023-03-17T03:57:23.618Z,7.20
2023-03-17T03:59:50.516Z,8.43
2023-03-17T04:02:17.506Z,7.60
2023-03-17T04:04:44.902Z,6.43
2023-03-17T04:07:12.160Z,6.93
2023-03-17T04:09:39.424Z,7.85
2023-03-17T04:12:07.080Z,7.63
2023-03-17T04:14:34.024Z,8.15
2023-03-17T04:17:01.737Z,7.10
2023-03-17T04:19:28.936Z,6.60
2023-03-17T04:21:56.289Z,7.45
2023-03-17T04:24:23.229Z,7.70
2023-03-17T04:26:50.150Z,7.35
2023-03-17T04:29:17.071Z,7.38
2023-03-17T04:31:44.101Z,8.13
2023-03-17T04:34:15.849Z,7.90
2023-03-17T04:36:44.174Z,8.93
2023-03-17T04:39:11.780Z,8.55
2023-03-17T04:41:40.077Z,8.82
2023-03-17T04:44:08.020Z,8.48
2023-03-17T04:46:36.153Z,9.20
2023-03-17T04:49:03.046Z,8.43
2023-03-17T04:51:30.564Z,8.63
2023-03-17T04:53:57.495Z,9.00
2023-03-17T04:56:24.599Z,9.70
2023-03-17T04:58:51.491Z,8.85
2023-03-17T05:01:18.534Z,9.85
2023-03-17T05:03:45.566Z,10.75
2023-03-17T05:06:12.551Z,10.93
2023-03-17T05:08:39.709Z,11.07
2023-03-17T05:11:06.684Z,10.60
2023-03-17T05:13:33.569Z,10.10
2023-03-17T05:16:01.581Z,10.32
2023-03-17T05:18:28.698Z,10.80
2023-03-17T05:20:55.703Z,12.70
2023-03-17T05:23:23.110Z,14.05
2023-03-17T05:25:50.337Z,13.35
2023-03-17T05:28:18.417Z,13.85
2023-03-17T05:30:46.094Z,13.38
2023-03-17T05:33:13.097Z,13.70
2023-03-17T05:35:40.853Z,12.82
2023-03-17T05:38:08.803Z,13.82
2023-03-17T05:40:37.185Z,13.70
2023-03-17T05:43:04.647Z,12.88
2023-03-17T05:45:31.778Z,12.35
2023-03-17T05:47:58.979Z,14.30
2023-03-17T05:50:27.156Z,12.95
2023-03-17T05:52:54.406Z,12.15
2023-03-17T05:55:22.597Z,13.40
2023-03-17T05:57:49.660Z,12.50
2023-03-17T06:00:17.026Z,12.90
2023-03-17T06:02:44.043Z,13.63
2023-03-17T06:05:11.666Z,13.95
2023-03-17T06:07:51.707Z,13.50
2023-03-17T06:10:22.054Z,14.77
2023-03-17T06:12:49.030Z,14.35
2023-03-17T06:15:17.154Z,15.20
2023-03-17T06:17:44.594Z,14.40
2023-03-17T06:20:12.626Z,15.48
2023-03-17T06:22:51.652Z,17.23
2023-03-17T06:25:27.190Z,16.20
2023-03-17T06:27:56.197Z,17.40
2023-03-17T06:30:23.228Z,17.35
2023-03-17T06:32:50.412Z,18.10
2023-03-17T06:35:18.189Z,17.50
2023-03-17T06:37:45.275Z,17.08
2023-03-17T06:40:13.022Z,18.60
2023-03-17T06:42:39.938Z,19.10
2023-03-17T06:45:09.399Z,18.58
2023-03-17T06:47:37.443Z,17.73
2023-03-17T06:50:05.038Z,17.70
2023-03-17T06:52:32.336Z,17.13
2023-03-17T06:54:59.229Z,17.83
2023-03-17T06:57:26.362Z,17.30
2023-03-17T06:59:53.408Z,14.90
2023-03-17T07:02:20.339Z,16.25
2023-03-17T07:04:47.765Z,17.17
2023-03-17T07:07:14.941Z,16.63
2023-03-17T07:09:42.054Z,16.65
2023-03-17T07:12:10.432Z,17.35
2023-03-17T07:14:37.618Z,16.13
2023-03-17T07:17:06.230Z,16.55
2023-03-17T07:19:33.679Z,15.90
2023-03-17T07:22:01.133Z,15.93
2023-03-17T07:24:28.262Z,15.98
2023-03-17T07:26:55.448Z,17.83
2023-03-17T07:29:22.876Z,16.90
2023-03-17T07:31:50.171Z,18.08
2023-03-17T07:34:17.885Z,16.33
2023-03-17T07:36:44.942Z,18.02
2023-03-17T07:39:12.842Z,16.10
2023-03-17T07:41:40.261Z,15.93
2023-03-17T07:44:07.336Z,15.80
2023-03-17T07:46:34.262Z,14.95
2023-03-17T07:49:01.929Z,16.02
2023-03-17T07:51:28.972Z,14.85
2023-03-17T07:54:03.630Z,15.80
2023-03-17T07:56:32.108Z,15.32
2023-03-17T07:59:00.060Z,14.30
2023-03-17T08:01:27.968Z,14.73
2023-03-17T08:03:56.641Z,16.10
2023-03-17T08:06:27.447Z,15.65
2023-03-17T08:08:55.206Z,16.00
2023-03-17T08:11:23.512Z,14.88
2023-03-17T08:13:51.119Z,15.27
2023-03-17T08:16:18.106Z,15.52
2023-03-17T08:18:45.238Z,14.43
2023-03-17T08:21:14.093Z,16.25
2023-03-17T08:23:43.382Z,16.25
2023-03-17T08:26:10.400Z,15.80
2023-03-17T08:28:37.635Z,16.75
2023-03-17T08:31:13.768Z,17.50
2023-03-17T08:33:42.582Z,16.23
2023-03-17T08:36:11.468Z,14.60
2023-03-17T08:38:40.427Z,15.95
2023-03-17T08:41:10.435Z,15.70
2023-03-17T08:43:38.368Z,15.57
2023-03-17T08:46:09.930Z,15.52
2023-03-17T08:48:37.522Z,14.65
2023-03-17T08:51:05.582Z,14.23
2023-03-17T08:53:35.186Z,13.98
2023-03-17T08:56:04.758Z,13.82
2023-03-17T08:58:32.032Z,13.88
2023-03-17T09:01:00.636Z,13.40
2023-03-17T09:03:29.113Z,13.57
2023-03-17T09:05:57.135Z,12.55
2023-03-17T09:12:07.208Z,13.05
2023-03-17T09:14:42.944Z,11.57
2023-03-17T09:17:11.337Z,12.30
2023-03-17T09:19:38.920Z,11.88
2023-03-17T09:22:06.048Z,12.88
2023-03-17T09:24:33.344Z,12.63
2023-03-17T09:27:01.461Z,11.15
2023-03-17T09:29:28.924Z,13.10
2023-03-17T09:31:57.129Z,11.43
2023-03-17T09:34:25.288Z,11.00
2023-03-17T09:36:54.378Z,12.05
2023-03-17T09:39:24.548Z,10.95
2023-03-17T09:41:58.967Z,11.10
2023-03-17T09:47:02.601Z,11.98
2023-03-17T09:49:45.667Z,12.02
2023-03-17T09:52:15.841Z,12.23
2023-03-17T09:54:44.014Z,12.27
2023-03-17T09:57:20.034Z,11.63
2023-03-17T09:59:51.166Z,12.13
2023-03-17T10:02:30.366Z,11.45
2023-03-17T10:04:58.236Z,11.70
2023-03-17T10:07:49.795Z,11.80
2023-03-17T10:10:37.058Z,12.77
2023-03-17T10:13:22.183Z,12.52
2023-03-17T10:16:12.339Z,11.82
2023-03-17T10:18:49.118Z,11.57
2023-03-17T10:21:24.417Z,11.50
2023-03-17T10:23:52.386Z,11.23
2023-03-17T10:26:25.327Z,12.05
2023-03-17T10:28:53.724Z,10.73
2023-03-17T10:31:28.816Z,10.55
2023-03-17T10:33:59.123Z,9.90
2023-03-17T10:37:01.365Z,10.65
2023-03-17T10:39:32.457Z,10.48
2023-03-17T10:42:10.778Z,10.38
2023-03-17T10:44:40.676Z,10.23
2023-03-17T10:47:39.833Z,10.73
2023-03-17T10:50:23.736Z,10.23
2023-03-17T10:53:09.481Z,10.03
2023-03-17T10:55:39.371Z,9.68
2023-03-17T10:58:15.384Z,9.27
2023-03-17T11:01:00.133Z,9.88
2023-03-17T11:06:10.262Z,8.25
2023-03-17T11:12:34.931Z,8.07
2023-03-17T11:21:30.182Z,8.77
2023-03-17T11:24:00.187Z,8.15
2023-03-17T11:26:58.244Z,8.80
2023-03-17T11:29:53.313Z,8.30
2023-03-17T11:32:27.616Z,7.07
2023-03-17T11:35:42.141Z,8.77
2023-03-17T11:38:30.197Z,8.52
2023-03-17T11:41:05.143Z,7.85
2023-03-17T11:43:47.658Z,8.00
2023-03-17T11:46:34.424Z,8.63
2023-03-17T11:49:20.595Z,7.60
2023-03-17T11:51:59.932Z,8.35
2023-03-17T11:54:38.726Z,8.82
2023-03-17T11:57:15.487Z,7.68
2023-03-17T11:59:47.458Z,7.82
2023-03-17T12:02:28.778Z,7.65
2023-03-17T12:05:02.611Z,8.20
2023-03-17T12:07:44.922Z,8.30
2023-03-17T12:10:37.979Z,8.80
2023-03-17T12:13:14.215Z,9.50
2023-03-17T12:16:10.137Z,8.30
2023-03-17T12:19:01.522Z,8.40
2023-03-17T12:21:47.650Z,8.82
2023-03-17T12:24:21.045Z,9.10
2023-03-17T12:26:55.953Z,7.75
2023-03-17T12:29:43.310Z,8.98
2023-03-17T12:32:24.419Z,8.25
2023-03-17T12:34:57.613Z,8.65
2023-03-17T12:37:27.756Z,9.88
2023-03-17T12:40:00.865Z,9.45
2023-03-17T12:42:52.385Z,9.63
2023-03-17T12:45:37.529Z,9.80
2023-03-17T12:48:37.231Z,9.77
2023-03-17T12:51:23.076Z,10.40
2023-03-17T12:53:51.964Z,9.63
2023-03-17T12:56:24.715Z,9.18
2023-03-17T12:58:54.757Z,9.75
2023-03-17T13:01:37.419Z,10.85
2023-03-17T13:04:06.686Z,10.60
2023-03-17T13:06:46.334Z,10.57
2023-03-17T13:09:31.843Z,10.30
2023-03-17T13:12:00.590Z,9.07
2023-03-17T13:14:27.482Z,10.20
2023-03-17T13:17:27.247Z,9.55
2023-03-17T13:19:57.255Z,10.50
2023-03-17T13:22:34.513Z,10.88
2023-03-17T13:25:23.621Z,9.95
2023-03-17T13:27:50.561Z,9.25
2023-03-17T13:30:24.432Z,10.07
2023-03-17T13:33:20.025Z,10.73
2023-03-17T13:36:05.567Z,9.50
2023-03-17T13:38:35.549Z,10.13
2023-03-17T13:41:35.878Z,9.93
2023-03-17T13:44:09.007Z,9.82
2023-03-17T13:46:39.896Z,9.25
2023-03-17T13:49:19.507Z,9.52
2023-03-17T13:52:04.471Z,10.10
2023-03-17T13:54:40.784Z,11.07
2023-03-17T13:57:28.599Z,10.50
2023-03-17T14:00:16.660Z,8.95
2023-03-17T14:02:45.339Z,8.57
2023-03-17T14:05:27.294Z,9.48
2023-03-17T14:08:04.030Z,9.13
2023-03-17T14:10:34.142Z,9.95
2023-03-17T14:13:21.833Z,9.13
2023-03-17T14:16:05.633Z,8.77
2023-03-17T14:18:43.125Z,8.77
2023-03-17T14:21:24.734Z,8.75
2023-03-17T14:23:56.044Z,9.38
2023-03-17T14:26:28.887Z,9.43
2023-03-17T14:28:59.048Z,8.52
2023-03-17T14:31:28.780Z,8.75
2023-03-17T14:33:58.716Z,8.65
2023-03-17T14:36:27.735Z,8.75
2023-03-17T14:38:56.801Z,8.68
2023-03-17T14:41:28.427Z,9.15
2023-03-17T14:44:00.418Z,9.20
2023-03-17T14:46:35.157Z,9.23
2023-03-17T14:49:18.975Z,8.55
2023-03-17T14:51:49.957Z,8.97
2023-03-17T14:54:22.627Z,9.13
2023-03-17T14:57:02.045Z,8.38
2023-03-17T14:59:33.463Z,8.38
2023-03-17T15:02:03.949Z,8.13
2023-03-17T15:04:34.267Z,8.43
2023-03-17T15:07:04.653Z,7.65
2023-03-17T15:09:36.578Z,8.60
2023-03-17T15:12:07.325Z,8.88
2023-03-17T15:14:38.940Z,8.63
2023-03-17T15:17:16.139Z,8.60
2023-03-17T15:19:51.472Z,8.93
2023-03-17T15:22:21.392Z,9.43
2023-03-17T15:24:59.511Z,10.02
2023-03-17T15:27:27.369Z,7.63
2023-03-17T15:29:54.420Z,9.43
2023-03-17T15:32:26.415Z,8.20
2023-03-17T15:34:57.168Z,8.57
2023-03-17T15:37:28.580Z,8.73
2023-03-17T15:39:56.709Z,7.70
2023-03-17T15:42:27.987Z,8.27
2023-03-17T15:44:55.614Z,8.43
2023-03-17T15:47:25.746Z,7.72
2023-03-17T15:49:55.926Z,8.07
2023-03-17T15:52:25.892Z,8.20
2023-03-17T15:54:55.301Z,7.95
2023-03-17T15:57:22.831Z,9.30
2023-03-17T15:59:50.176Z,8.05
2023-03-17T16:02:28.108Z,8.45
2023-03-17T16:04:55.469Z,7.78
2023-03-17T16:07:22.698Z,8.02
2023-03-17T16:09:49.838Z,7.45
2023-03-17T16:12:16.849Z,7.32
2023-03-17T16:14:43.942Z,7.70
2023-03-17T16:17:26.954Z,8.45
2023-03-17T16:19:54.378Z,6.50
2023-03-17T16:22:43.134Z,7.55
2023-03-17T16:25:18.953Z,9.02
2023-03-17T16:27:46.737Z,8.32
2023-03-17T16:30:23.067Z,7.55
2023-03-17T16:32:50.522Z,7.22
2023-03-17T16:35:20.377Z,7.75
2023-03-17T16:37:48.529Z,7.55
2023-03-17T16:40:25.970Z,8.07
2023-03-17T16:42:53.587Z,8.10
2023-03-17T16:45:30.026Z,8.32
2023-03-17T16:47:57.645Z,8.10
2023-03-17T16:50:27.806Z,8.60
2023-03-17T16:52:54.985Z,8.45
2023-03-17T16:55:23.128Z,7.70
2023-03-17T16:57:52.304Z,8.40
2023-03-17T17:00:30.659Z,8.55
2023-03-17T17:02:58.771Z,9.13
2023-03-17T17:05:29.517Z,7.93
2023-03-17T17:07:57.962Z,8.80
2023-03-17T17:10:27.257Z,7.82
2023-03-17T17:12:54.412Z,8.18
2023-03-17T17:15:22.853Z,8.65
2023-03-17T17:17:56.794Z,8.05
2023-03-17T17:20:39.420Z,9.95
2023-03-17T17:23:11.079Z,8.88
2023-03-17T17:25:38.125Z,9.30
2023-03-17T17:28:05.668Z,9.25
2023-03-17T17:30:33.579Z,9.02
2023-03-17T17:33:01.774Z,8.13
2023-03-17T17:35:32.589Z,8.55
2023-03-17T17:38:01.095Z,8.55
2023-03-17T17:40:29.400Z,8.25
2023-03-17T17:42:57.849Z,8.95
2023-03-17T17:45:25.294Z,8.65
2023-03-17T17:47:52.242Z,8.50
2023-03-17T17:50:30.101Z,8.55
2023-03-17T17:53:02.837Z,8.88
2023-03-17T17:55:29.939Z,9.57
2023-03-17T17:57:56.972Z,9.35
2023-03-17T18:00:25.806Z,8.82
2023-03-17T18:02:52.804Z,9.65
2023-03-17T18:05:19.789Z,8.88
2023-03-17T18:07:46.816Z,9.90
2023-03-17T18:13:55.248Z,9.15
2023-03-17T18:16:22.459Z,10.38
2023-03-17T18:18:49.417Z,11.13
2023-03-17T18:21:16.807Z,9.75
2023-03-17T18:23:47.451Z,11.07
2023-03-17T18:26:17.272Z,10.73
2023-03-17T18:28:44.811Z,9.65
2023-03-17T18:31:34.740Z,9.50
2023-03-17T18:34:36.033Z,9.68
2023-03-17T18:37:03.225Z,8.77
2023-03-17T18:39:30.788Z,10.40
2023-03-17T18:41:57.803Z,10.75
2023-03-17T18:44:25.133Z,10.20
2023-03-17T18:46:52.491Z,9.95
2023-03-17T18:49:19.538Z,8.98
2023-03-17T18:51:46.719Z,9.52
2023-03-17T18:54:13.907Z,9.93
2023-03-17T18:56:41.157Z,9.27
2023-03-17T18:59:08.066Z,9.65
2023-03-17T19:01:35.108Z,10.48
2023-03-17T19:04:04.028Z,9.82
2023-03-17T19:06:31.331Z,11.68
2023-03-17T19:08:58.917Z,10.20
2023-03-17T19:11:26.220Z,9.82
2023-03-17T19:13:53.204Z,10.55
2023-03-17T19:16:20.229Z,11.02
2023-03-17T19:18:47.310Z,11.45
2023-03-17T19:21:14.424Z,10.88
2023-03-17T19:23:41.709Z,10.63
2023-03-17T19:26:08.971Z,11.32
2023-03-17T19:28:36.022Z,11.82
2023-03-17T19:31:03.489Z,11.70
2023-03-17T19:37:11.823Z,9.77
2023-03-17T19:39:38.799Z,9.90
2023-03-17T19:42:06.070Z,10.43
2023-03-17T19:44:33.833Z,11.10
2023-03-17T19:47:05.146Z,10.73
2023-03-17T19:49:32.446Z,10.07
2023-03-17T19:51:59.439Z,10.85
2023-03-17T19:54:26.405Z,11.10
2023-03-17T19:56:53.662Z,10.15
2023-03-17T19:59:20.705Z,10.15
2023-03-17T20:01:49.261Z,11.07
2023-03-17T20:04:21.085Z,11.05
2023-03-17T20:06:48.184Z,10.82
2023-03-17T20:09:15.442Z,10.20
2023-03-17T20:11:42.560Z,11.65
2023-03-17T20:14:09.638Z,10.82
2023-03-17T20:16:37.133Z,11.10
2023-03-17T20:19:04.233Z,11.02
2023-03-17T20:21:31.486Z,11.10
2023-03-17T20:23:58.692Z,10.23
2023-03-17T20:26:25.807Z,10.70
2023-03-17T20:28:53.970Z,10.13
2023-03-17T20:31:21.014Z,11.63
2023-03-17T20:33:48.378Z,10.25
2023-03-17T20:36:15.532Z,10.30
2023-03-17T20:38:43.948Z,10.63
2023-03-17T20:41:17.278Z,11.25
2023-03-17T20:43:45.628Z,10.65
2023-03-17T20:46:16.912Z,10.45
2023-03-17T20:48:44.552Z,10.25
2023-03-17T20:51:16.450Z,10.63
2023-03-17T20:53:44.844Z,11.35
2023-03-17T20:56:23.707Z,10.88
2023-03-17T20:58:53.284Z,10.05
2023-03-17T21:01:21.818Z,10.13
2023-03-17T21:03:49.936Z,11.23
2023-03-17T21:06:18.468Z,10.50
2023-03-17T21:08:46.471Z,10.55
2023-03-17T21:11:21.051Z,10.50
2023-03-17T21:16:26.559Z,10.40
2023-03-17T21:18:54.082Z,11.13
2023-03-17T21:21:22.333Z,11.60
2023-03-17T21:23:49.741Z,11.07
2023-03-17T21:26:16.828Z,10.48
2023-03-17T21:28:44.226Z,10.80
2023-03-17T21:31:12.593Z,10.90
2023-03-17T21:33:39.823Z,10.80
2023-03-17T21:36:07.502Z,12.18
2023-03-17T21:38:34.842Z,12.13
2023-03-17T21:41:21.500Z,11.10
2023-03-17T21:43:48.857Z,10.32
2023-03-17T21:46:15.860Z,11.07
2023-03-17T21:48:44.154Z,11.18
2023-03-17T21:51:11.728Z,11.75
2023-03-17T21:53:39.349Z,10.98
2023-03-17T21:56:06.953Z,11.32
2023-03-17T21:58:34.138Z,10.73
2023-03-17T22:01:01.563Z,11.38
2023-03-17T22:03:28.644Z,11.73
2023-03-17T22:05:56.774Z,10.52
2023-03-17T22:08:23.884Z,10.52
2023-03-17T22:10:51.457Z,11.88
2023-03-17T22:13:18.566Z,11.38
2023-03-17T22:15:45.555Z,11.30
2023-03-17T22:18:12.585Z,10.93
2023-03-17T22:20:39.757Z,11.05
2023-03-17T22:23:06.797Z,10.95
2023-03-17T22:25:33.784Z,10.25
2023-03-17T22:31:47.619Z,11.80
2023-03-17T22:34:14.753Z,10.52
2023-03-17T22:36:41.817Z,11.63
2023-03-17T22:39:10.645Z,11.82
2023-03-17T22:41:38.711Z,11.38
2023-03-17T22:44:08.399Z,10.73
2023-03-17T22:46:37.364Z,10.73
2023-03-17T22:49:06.048Z,10.80
2023-03-17T22:51:33.143Z,11.40
2023-03-17T22:54:00.299Z,11.40
2023-03-17T22:56:27.406Z,10.85
2023-03-17T22:58:55.110Z,11.05
2023-03-17T23:01:25.846Z,11.50
2023-03-17T23:03:54.288Z,11.85
2023-03-17T23:06:22.028Z,11.45
2023-03-17T23:08:49.231Z,10.48
2023-03-17T23:11:21.357Z,11.23
2023-03-17T23:13:49.133Z,10.38
2023-03-17T23:16:16.561Z,11.20
2023-03-17T23:18:46.751Z,10.80
2023-03-17T23:21:32.847Z,11.25
2023-03-17T23:24:00.984Z,13.75
2023-03-17T23:26:28.541Z,10.60
2023-03-17T23:28:55.994Z,10.70
2023-03-17T23:31:23.179Z,11.90
2023-03-17T23:33:50.747Z,11.30
2023-03-17T23:36:18.418Z,11.25
2023-03-17T23:38:46.094Z,10.63
2023-03-17T23:41:14.515Z,10.57
2023-03-17T23:43:42.326Z,11.07
2023-03-17T23:46:09.402Z,10.95
2023-03-17T23:48:36.746Z,10.80
2023-03-17T23:51:04.114Z,10.63
2023-03-17T23:53:31.562Z,10.98
2023-03-17T23:55:59.333Z,11.38
2023-03-17T23:58:27.593Z,9.93
